PRIVATE WETTERSTATION BILLIGHEIM-ALLFELD                       ZURCK
Wetterdaten: Samstag, 20.12.2014
Datum Zeit Temp. A. Temp. A. min Temp. A. max Feuchte A. Luftdruck Regen Wind Richtung Richtung Sonnenschein ET Solar Taupunkt Windchill Windben Empfang
20.12.2014 00:00 6,6 C 6,6 C 6,7 C 92 % 1021,0 hPa 0,0 l/m 0,0 km/h (0 Bft) N-NW 337 0 min 0,000 mm 0 W/m 5,4 C 6,6 C 3,2 km/h (1 Bft) 100 %
20.12.2014 00:10 6,4 C 6,4 C 6,6 C 92 % 1021,3 hPa 0,0 l/m 0,0 km/h (0 Bft) N-NW 337 0 min 0,000 mm 0 W/m 5,2 C 6,4 C 3,2 km/h (1 Bft) 100 %
20.12.2014 00:20 6,4 C 6,4 C 6,4 C 92 % 1021,4 hPa 0,0 l/m 1,6 km/h (1 Bft) W 270 0 min 0,000 mm 0 W/m 5,2 C 6,4 C 6,4 km/h (2 Bft) 100 %
20.12.2014 00:30 6,3 C 6,3 C 6,4 C 92 % 1021,6 hPa 0,0 l/m 0,0 km/h (0 Bft) W-NW 292 0 min 0,000 mm 0 W/m 5,1 C 6,3 C 4,8 km/h (1 Bft) 100 %
20.12.2014 00:40 6,1 C 6,1 C 6,3 C 92 % 1021,6 hPa 0,0 l/m 0,0 km/h (0 Bft) W-NW 292 0 min 0,000 mm 0 W/m 4,9 C 6,1 C 4,8 km/h (1 Bft) 100 %
20.12.2014 00:50 5,9 C 5,9 C 6,1 C 92 % 1021,6 hPa 0,0 l/m 0,0 km/h (0 Bft) W-NW 292 0 min 0,000 mm 0 W/m 4,7 C 5,9 C 6,4 km/h (2 Bft) 100 %
20.12.2014 01:00 5,8 C 5,8 C 5,9 C 92 % 1021,7 hPa 0,0 l/m 0,0 km/h (0 Bft) W-NW 292 0 min 0,000 mm 0 W/m 4,6 C 5,8 C 4,8 km/h (1 Bft) 100 %
20.12.2014 01:10 5,7 C 5,7 C 5,8 C 92 % 1022,0 hPa 0,0 l/m 0,0 km/h (0 Bft) W-NW 292 0 min 0,000 mm 0 W/m 4,5 C 5,7 C 3,2 km/h (1 Bft) 100 %
20.12.2014 01:20 5,6 C 5,6 C 5,7 C 92 % 1022,0 hPa 0,0 l/m 0,0 km/h (0 Bft) W-NW 292 0 min 0,000 mm 0 W/m 4,4 C 5,6 C 1,6 km/h (1 Bft) 100 %
20.12.2014 01:30 5,4 C 5,4 C 5,6 C 92 % 1022,0 hPa 0,0 l/m 0,0 km/h (0 Bft) W-NW 292 0 min 0,000 mm 0 W/m 4,2 C 5,4 C 4,8 km/h (1 Bft) 99 %
20.12.2014 01:40 5,2 C 5,2 C 5,4 C 92 % 1021,9 hPa 0,0 l/m 3,2 km/h (1 Bft) W-SW 247 0 min 0,000 mm 0 W/m 4,0 C 5,2 C 11,3 km/h (2 Bft) 100 %
20.12.2014 01:50 4,9 C 4,9 C 5,2 C 92 % 1022,0 hPa 0,0 l/m 6,4 km/h (2 Bft) W 270 0 min 0,000 mm 0 W/m 3,7 C 4,9 C 22,5 km/h (4 Bft) 100 %
20.12.2014 02:00 4,7 C 4,7 C 4,9 C 91 % 1022,4 hPa 0,0 l/m 6,4 km/h (2 Bft) W 270 0 min 0,000 mm 0 W/m 3,4 C 4,7 C 14,5 km/h (3 Bft) 100 %
20.12.2014 02:10 4,6 C 4,6 C 4,7 C 90 % 1022,4 hPa 0,0 l/m 8,0 km/h (2 Bft) W-NW 292 0 min 0,000 mm 0 W/m 3,1 C 3,2 C 17,7 km/h (3 Bft) 100 %
20.12.2014 02:20 4,5 C 4,5 C 4,6 C 90 % 1022,4 hPa 0,0 l/m 9,7 km/h (2 Bft) W-NW 292 0 min 0,000 mm 0 W/m 3,0 C 1,7 C 22,5 km/h (4 Bft) 100 %
20.12.2014 02:30 4,4 C 4,4 C 4,5 C 89 % 1022,7 hPa 0,0 l/m 6,4 km/h (2 Bft) W-NW 292 0 min 0,000 mm 0 W/m 2,7 C 4,4 C 17,7 km/h (3 Bft) 100 %
20.12.2014 02:40 4,3 C 4,3 C 4,4 C 89 % 1022,9 hPa 0,0 l/m 4,8 km/h (1 Bft) W-NW 292 0 min 0,000 mm 0 W/m 2,7 C 4,3 C 11,3 km/h (2 Bft) 100 %
20.12.2014 02:50 4,1 C 4,1 C 4,3 C 89 % 1023,2 hPa 0,0 l/m 6,4 km/h (2 Bft) NW 315 0 min 0,000 mm 0 W/m 2,5 C 4,1 C 16,1 km/h (3 Bft) 99 %
20.12.2014 03:00 4,0 C 4,0 C 4,1 C 89 % 1023,2 hPa 0,0 l/m 8,0 km/h (2 Bft) W-NW 292 0 min 0,000 mm 0 W/m 2,4 C 2,6 C 16,1 km/h (3 Bft) 100 %
20.12.2014 03:10 3,9 C 3,9 C 4,0 C 88 % 1023,4 hPa 0,0 l/m 6,4 km/h (2 Bft) W-NW 292 0 min 0,000 mm 0 W/m 2,1 C 3,9 C 16,1 km/h (3 Bft) 100 %
20.12.2014 03:20 3,8 C 3,8 C 3,9 C 88 % 1023,4 hPa 0,0 l/m 6,4 km/h (2 Bft) W-NW 292 0 min 0,000 mm 0 W/m 2,0 C 3,8 C 11,3 km/h (2 Bft) 100 %
20.12.2014 03:30 3,7 C 3,7 C 3,8 C 88 % 1023,4 hPa 0,0 l/m 8,0 km/h (2 Bft) W-NW 292 0 min 0,000 mm 0 W/m 1,9 C 2,2 C 16,1 km/h (3 Bft) 100 %
20.12.2014 03:40 3,6 C 3,6 C 3,7 C 88 % 1023,4 hPa 0,0 l/m 4,8 km/h (1 Bft) W-NW 292 0 min 0,000 mm 0 W/m 1,8 C 3,6 C 11,3 km/h (2 Bft) 100 %
20.12.2014 03:50 3,5 C 3,5 C 3,6 C 88 % 1023,5 hPa 0,0 l/m 4,8 km/h (1 Bft) NW 315 0 min 0,000 mm 0 W/m 1,7 C 3,5 C 16,1 km/h (3 Bft) 99 %
20.12.2014 04:00 3,4 C 3,4 C 3,5 C 88 % 1023,7 hPa 0,0 l/m 4,8 km/h (1 Bft) NW 315 0 min 0,000 mm 0 W/m 1,6 C 3,4 C 11,3 km/h (2 Bft) 100 %
20.12.2014 04:10 3,3 C 3,3 C 3,4 C 88 % 1023,8 hPa 0,0 l/m 3,2 km/h (1 Bft) NW 315 0 min 0,000 mm 0 W/m 1,5 C 3,3 C 9,7 km/h (2 Bft) 100 %
20.12.2014 04:20 3,3 C 3,3 C 3,3 C 88 % 1023,8 hPa 0,0 l/m 1,6 km/h (1 Bft) W-NW 292 0 min 0,000 mm 0 W/m 1,5 C 3,3 C 9,7 km/h (2 Bft) 99 %
20.12.2014 04:30 3,2 C 3,2 C 3,3 C 88 % 1023,7 hPa 0,0 l/m 1,6 km/h (1 Bft) W-SW 247 0 min 0,000 mm 0 W/m 1,4 C 3,2 C 9,7 km/h (2 Bft) 100 %
20.12.2014 04:40 3,1 C 3,1 C 3,2 C 88 % 1023,6 hPa 0,0 l/m 1,6 km/h (1 Bft) W 270 0 min 0,000 mm 0 W/m 1,3 C 3,1 C 6,4 km/h (2 Bft) 100 %
20.12.2014 04:50 3,0 C 3,0 C 3,1 C 88 % 1023,7 hPa 0,0 l/m 1,6 km/h (1 Bft) W 270 0 min 0,000 mm 0 W/m 1,2 C 3,0 C 6,4 km/h (2 Bft) 100 %
20.12.2014 05:00 2,9 C 2,9 C 3,0 C 88 % 1023,7 hPa 0,0 l/m 1,6 km/h (1 Bft) W-SW 247 0 min 0,000 mm 0 W/m 1,1 C 2,9 C 8,0 km/h (2 Bft) 100 %
20.12.2014 05:10 2,8 C 2,8 C 3,0 C 88 % 1023,7 hPa 0,0 l/m 1,6 km/h (1 Bft) W-SW 247 0 min 0,000 mm 0 W/m 1,0 C 2,8 C 8,0 km/h (2 Bft) 100 %
20.12.2014 05:20 2,8 C 2,8 C 2,8 C 89 % 1023,7 hPa 0,0 l/m 6,4 km/h (2 Bft) SW 225 0 min 0,000 mm 0 W/m 1,2 C 2,8 C 14,5 km/h (3 Bft) 100 %
20.12.2014 05:30 2,8 C 2,8 C 2,8 C 90 % 1023,8 hPa 0,0 l/m 8,0 km/h (2 Bft) SW 225 0 min 0,000 mm 0 W/m 1,3 C 1,3 C 14,5 km/h (3 Bft) 100 %
20.12.2014 05:40 2,9 C 2,8 C 2,9 C 90 % 1023,9 hPa 0,0 l/m 8,0 km/h (2 Bft) SW 225 0 min 0,000 mm 0 W/m 1,4 C 1,4 C 16,1 km/h (3 Bft) 100 %
20.12.2014 05:50 3,1 C 2,9 C 3,1 C 90 % 1024,0 hPa 0,0 l/m 8,0 km/h (2 Bft) SW 225 0 min 0,000 mm 0 W/m 1,6 C 1,6 C 19,3 km/h (3 Bft) 100 %
20.12.2014 06:00 3,1 C 3,1 C 3,1 C 90 % 1024,0 hPa 0,0 l/m 8,0 km/h (2 Bft) SW 225 0 min 0,000 mm 0 W/m 1,6 C 1,6 C 14,5 km/h (3 Bft) 100 %
20.12.2014 06:10 3,0 C 3,0 C 3,1 C 90 % 1024,0 hPa 0,0 l/m 8,0 km/h (2 Bft) SW 225 0 min 0,000 mm 0 W/m 1,5 C 1,5 C 16,1 km/h (3 Bft) 100 %
20.12.2014 06:20 3,1 C 3,0 C 3,1 C 90 % 1024,1 hPa 0,0 l/m 8,0 km/h (2 Bft) SW 225 0 min 0,000 mm 0 W/m 1,6 C 1,6 C 22,5 km/h (4 Bft) 100 %
20.12.2014 06:30 3,2 C 3,1 C 3,2 C 91 % 1024,2 hPa 0,0 l/m 8,0 km/h (2 Bft) W-SW 247 0 min 0,000 mm 0 W/m 1,9 C 1,7 C 22,5 km/h (4 Bft) 100 %
20.12.2014 06:40 3,3 C 3,2 C 3,3 C 91 % 1024,1 hPa 0,0 l/m 9,7 km/h (2 Bft) W-SW 247 0 min 0,000 mm 0 W/m 2,0 C 0,4 C 20,9 km/h (4 Bft) 100 %
20.12.2014 06:50 3,3 C 3,3 C 3,3 C 91 % 1024,2 hPa 0,0 l/m 6,4 km/h (2 Bft) W-SW 247 0 min 0,000 mm 0 W/m 2,0 C 3,3 C 17,7 km/h (3 Bft) 100 %
20.12.2014 07:00 3,3 C 3,3 C 3,3 C 91 % 1024,2 hPa 0,0 l/m 8,0 km/h (2 Bft) W 270 0 min 0,000 mm 0 W/m 2,0 C 1,8 C 20,9 km/h (4 Bft) 100 %
20.12.2014 07:10 3,3 C 3,3 C 3,3 C 91 % 1024,3 hPa 0,0 l/m 9,7 km/h (2 Bft) W-SW 247 0 min 0,000 mm 0 W/m 2,0 C 0,4 C 22,5 km/h (4 Bft) 100 %
20.12.2014 07:20 3,3 C 3,3 C 3,3 C 91 % 1024,4 hPa 0,0 l/m 11,3 km/h (2 Bft) W-SW 247 0 min 0,000 mm 0 W/m 2,0 C -0,7 C 22,5 km/h (4 Bft) 100 %
20.12.2014 07:30 3,3 C 3,3 C 3,4 C 91 % 1024,4 hPa 0,0 l/m 8,0 km/h (2 Bft) W 270 0 min 0,000 mm 0 W/m 2,0 C 1,8 C 19,3 km/h (3 Bft) 100 %
20.12.2014 07:40 3,4 C 3,3 C 3,4 C 92 % 1024,4 hPa 0,0 l/m 11,3 km/h (2 Bft) W-SW 247 0 min 0,000 mm 0 W/m 2,2 C -0,6 C 29,0 km/h (5 Bft) 100 %
20.12.2014 07:50 3,4 C 3,4 C 3,4 C 92 % 1024,4 hPa 0,0 l/m 11,3 km/h (2 Bft) W-SW 247 0 min 0,000 mm 0 W/m 2,2 C -0,6 C 30,6 km/h (5 Bft) 100 %
20.12.2014 08:00 3,4 C 3,4 C 3,4 C 92 % 1024,4 hPa 0,0 l/m 11,3 km/h (2 Bft) W-SW 247 0 min 0,000 mm 0 W/m 2,2 C -0,6 C 32,2 km/h (5 Bft) 100 %
20.12.2014 08:10 3,5 C 3,4 C 3,5 C 92 % 1024,5 hPa 0,0 l/m 11,3 km/h (2 Bft) W-SW 247 0 min 0,000 mm 0 W/m 2,3 C -0,5 C 29,0 km/h (5 Bft) 100 %
20.12.2014 08:20 3,6 C 3,5 C 3,6 C 92 % 1024,5 hPa 0,0 l/m 14,5 km/h (3 Bft) W-SW 247 0 min 0,000 mm 5 W/m 2,4 C -2,3 C 33,8 km/h (5 Bft) 100 %
20.12.2014 08:30 3,7 C 3,6 C 3,7 C 91 % 1024,7 hPa 0,0 l/m 16,1 km/h (3 Bft) W-SW 247 0 min 0,000 mm 9 W/m 2,4 C -3,1 C 27,4 km/h (4 Bft) 86 %
20.12.2014 08:40 3,7 C 3,6 C 3,7 C 91 % 1024,8 hPa 0,0 l/m 16,1 km/h (3 Bft) W-SW 247 0 min 0,000 mm 12 W/m 2,4 C -3,1 C 35,4 km/h (5 Bft) 100 %
20.12.2014 08:50 3,7 C 3,7 C 3,8 C 91 % 1024,7 hPa 0,0 l/m 14,5 km/h (3 Bft) W-SW 247 0 min 0,000 mm 18 W/m 2,4 C -2,2 C 29,0 km/h (5 Bft) 100 %
20.12.2014 09:00 3,8 C 3,7 C 3,8 C 90 % 1024,8 hPa 0,0 l/m 17,7 km/h (3 Bft) W-SW 247 0 min 0,025 mm 35 W/m 2,3 C -3,7 C 37,0 km/h (5 Bft) 100 %
20.12.2014 09:10 3,9 C 3,8 C 3,9 C 90 % 1024,8 hPa 0,0 l/m 16,1 km/h (3 Bft) SW 225 0 min 0,000 mm 51 W/m 2,4 C -2,8 C 32,2 km/h (5 Bft) 100 %
20.12.2014 09:20 4,1 C 3,9 C 4,1 C 90 % 1024,8 hPa 0,0 l/m 16,1 km/h (3 Bft) W-SW 247 0 min 0,000 mm 123 W/m 2,6 C -2,6 C 35,4 km/h (5 Bft) 100 %
20.12.2014 09:30 4,5 C 4,1 C 4,5 C 90 % 1024,9 hPa 0,0 l/m 12,9 km/h (3 Bft) SW 225 0 min 0,000 mm 151 W/m 3,0 C -0,4 C 29,0 km/h (5 Bft) 100 %
20.12.2014 09:40 4,8 C 4,5 C 4,8 C 89 % 1024,9 hPa 0,0 l/m 12,9 km/h (3 Bft) SW 225 10 min 0,000 mm 158 W/m 3,1 C -0,0 C 30,6 km/h (5 Bft) 100 %
20.12.2014 09:50 4,9 C 4,8 C 4,9 C 88 % 1024,7 hPa 0,0 l/m 16,1 km/h (3 Bft) SW 225 10 min 0,000 mm 188 W/m 3,1 C -1,6 C 30,6 km/h (5 Bft) 100 %
20.12.2014 10:00 5,1 C 4,9 C 5,1 C 87 % 1024,7 hPa 0,0 l/m 14,5 km/h (3 Bft) SW 225 10 min 0,051 mm 199 W/m 3,1 C -0,5 C 29,0 km/h (5 Bft) 100 %
20.12.2014 10:10 5,0 C 5,0 C 5,1 C 86 % 1024,6 hPa 0,0 l/m 17,7 km/h (3 Bft) SW 225 10 min 0,000 mm 229 W/m 2,9 C -2,2 C 33,8 km/h (5 Bft) 100 %
20.12.2014 10:20 4,8 C 4,8 C 5,0 C 87 % 1024,7 hPa 0,0 l/m 16,1 km/h (3 Bft) SW 225 0 min 0,000 mm 83 W/m 2,8 C -1,7 C 29,0 km/h (5 Bft) 100 %
20.12.2014 10:30 4,7 C 4,7 C 4,8 C 87 % 1024,7 hPa 0,0 l/m 19,3 km/h (3 Bft) SW 225 0 min 0,000 mm 79 W/m 2,7 C -3,3 C 35,4 km/h (5 Bft) 92 %
20.12.2014 10:40 4,8 C 4,7 C 4,8 C 87 % 1024,6 hPa 0,0 l/m 25,2 km/h (4 Bft) W 260 0 min 0,000 mm 77 W/m 2,8 C -5,3 C 29,0 km/h (5 Bft) 100 %
20.12.2014 10:50 4,8 C 4,8 C 4,8 C 87 % 1024,6 hPa 0,0 l/m 12,9 km/h (3 Bft) SW 221 0 min 0,000 mm 111 W/m 2,8 C -0,0 C 25,7 km/h (4 Bft) 98 %
20.12.2014 11:00 4,9 C 4,8 C 4,9 C 86 % 1024,6 hPa 0,0 l/m 16,3 km/h (3 Bft) SW 223 0 min 0,000 mm 53 W/m 2,8 C -1,7 C 30,6 km/h (5 Bft) 97 %
20.12.2014 11:10 4,9 C 4,9 C 4,9 C 86 % 1024,3 hPa 0,0 l/m 10,5 km/h (2 Bft) S-SW 205 0 min 0,051 mm 30 W/m 2,8 C 1,6 C 20,9 km/h (4 Bft) 97 %
20.12.2014 11:20 4,9 C 4,9 C 4,9 C 87 % 1024,2 hPa 0,0 l/m 12,4 km/h (3 Bft) SW 231 0 min 0,000 mm 88 W/m 2,9 C 0,4 C 29,0 km/h (5 Bft) 98 %
20.12.2014 11:30 5,1 C 4,9 C 5,1 C 87 % 1023,7 hPa 0,0 l/m 14,1 km/h (3 Bft) S-SW 209 0 min 0,000 mm 120 W/m 3,1 C -0,3 C 37,0 km/h (5 Bft) 97 %
20.12.2014 11:40 5,2 C 5,1 C 5,2 C 87 % 1023,5 hPa 0,0 l/m 10,9 km/h (2 Bft) W-SW 237 0 min 0,000 mm 105 W/m 3,2 C 1,7 C 22,5 km/h (4 Bft) 98 %
20.12.2014 11:50 5,3 C 5,2 C 5,3 C 85 % 1023,3 hPa 0,0 l/m 16,9 km/h (3 Bft) W-SW 240 0 min 0,000 mm 149 W/m 3,0 C -1,5 C 29,0 km/h (5 Bft) 97 %
20.12.2014 12:00 5,4 C 5,3 C 5,4 C 84 % 1023,6 hPa 0,0 l/m 15,8 km/h (3 Bft) S-SW 193 0 min 0,000 mm 46 W/m 2,9 C -0,8 C 33,8 km/h (5 Bft) 98 %
20.12.2014 12:10 5,3 C 5,3 C 5,4 C 85 % 1023,5 hPa 0,0 l/m 15,7 km/h (3 Bft) SW 221 0 min 0,051 mm 46 W/m 3,0 C -0,9 C 35,4 km/h (5 Bft) 97 %
20.12.2014 12:20 5,3 C 5,3 C 5,3 C 85 % 1023,6 hPa 0,0 l/m 13,2 km/h (3 Bft) W 261 0 min 0,000 mm 65 W/m 3,0 C 0,4 C 27,4 km/h (4 Bft) 97 %
20.12.2014 12:30 5,3 C 5,3 C 5,3 C 85 % 1023,3 hPa 0,0 l/m 12,4 km/h (3 Bft) W-SW 237 0 min 0,000 mm 70 W/m 3,0 C 0,9 C 32,2 km/h (5 Bft) 97 %
20.12.2014 12:40 5,4 C 5,3 C 5,4 C 84 % 1023,1 hPa 0,0 l/m 13,5 km/h (3 Bft) W-SW 248 0 min 0,000 mm 63 W/m 2,9 C 0,4 C 30,6 km/h (5 Bft) 98 %
20.12.2014 12:50 5,6 C 5,4 C 5,6 C 83 % 1022,9 hPa 0,0 l/m 13,5 km/h (3 Bft) S-SW 211 0 min 0,000 mm 62 W/m 2,9 C 0,6 C 27,4 km/h (4 Bft) 98 %
20.12.2014 13:00 5,6 C 5,5 C 5,6 C 83 % 1022,9 hPa 0,0 l/m 17,5 km/h (3 Bft) W 259 0 min 0,000 mm 70 W/m 2,9 C -1,4 C 37,0 km/h (5 Bft) 97 %
20.12.2014 13:10 5,7 C 5,6 C 5,7 C 82 % 1022,9 hPa 0,0 l/m 17,2 km/h (3 Bft) W-SW 249 0 min 0,051 mm 67 W/m 2,9 C -1,1 C 37,0 km/h (5 Bft) 97 %
20.12.2014 13:20 5,8 C 5,7 C 5,8 C 81 % 1022,6 hPa 0,0 l/m 19,5 km/h (3 Bft) W 267 0 min 0,000 mm 54 W/m 2,8 C -1,9 C 37,0 km/h (5 Bft) 97 %
20.12.2014 13:30 5,8 C 5,8 C 5,8 C 80 % 1022,3 hPa 0,0 l/m 18,1 km/h (3 Bft) W 263 0 min 0,000 mm 47 W/m 2,6 C -1,4 C 38,6 km/h (5 Bft) 89 %
20.12.2014 13:40 5,8 C 5,8 C 5,8 C 80 % 1022,5 hPa 0,0 l/m 21,0 km/h (4 Bft) W-SW 252 0 min 0,000 mm 26 W/m 2,6 C -2,5 C 46,7 km/h (6 Bft) 97 %
20.12.2014 13:50 5,8 C 5,8 C 5,8 C 80 % 1022,1 hPa 0,0 l/m 21,1 km/h (4 Bft) W-SW 249 0 min 0,000 mm 46 W/m 2,6 C -2,6 C 46,7 km/h (6 Bft) 98 %
20.12.2014 14:00 5,8 C 5,8 C 5,8 C 81 % 1022,2 hPa 0,0 l/m 19,6 km/h (3 Bft) S 183 0 min 0,050 mm 47 W/m 2,8 C -2,0 C 38,6 km/h (5 Bft) 97 %
20.12.2014 14:10 5,7 C 5,7 C 5,8 C 80 % 1022,1 hPa 0,0 l/m 20,3 km/h (4 Bft) W 259 0 min 0,000 mm 28 W/m 2,5 C -2,4 C 43,5 km/h (6 Bft) 98 %
20.12.2014 14:20 5,7 C 5,7 C 5,7 C 80 % 1021,9 hPa 0,0 l/m 19,5 km/h (3 Bft) W-NW 283 0 min 0,000 mm 18 W/m 2,5 C -2,1 C 38,6 km/h (5 Bft) 100 %
20.12.2014 14:30 5,8 C 5,7 C 5,8 C 80 % 1021,8 hPa 0,0 l/m 16,0 km/h (3 Bft) W 265 0 min 0,000 mm 16 W/m 2,6 C -0,4 C 37,0 km/h (5 Bft) 100 %
20.12.2014 14:40 5,8 C 5,8 C 5,8 C 79 % 1021,8 hPa 0,0 l/m 17,7 km/h (3 Bft) W-SW 254 0 min 0,000 mm 26 W/m 2,4 C -1,2 C 43,5 km/h (6 Bft) 100 %
20.12.2014 14:50 5,8 C 5,8 C 5,8 C 80 % 1021,9 hPa 0,0 l/m 19,8 km/h (3 Bft) W-SW 254 0 min 0,000 mm 21 W/m 2,6 C -2,1 C 46,7 km/h (6 Bft) 100 %
20.12.2014 15:00 5,6 C 5,6 C 5,8 C 82 % 1021,9 hPa 0,0 l/m 21,5 km/h (4 Bft) W-SW 250 0 min 0,051 mm 11 W/m 2,8 C -3,0 C 45,1 km/h (6 Bft) 100 %
20.12.2014 15:10 5,4 C 5,4 C 5,6 C 83 % 1022,0 hPa 0,2 l/m 18,7 km/h (3 Bft) W 266 0 min 0,000 mm 5 W/m 2,7 C -2,1 C 37,0 km/h (5 Bft) 100 %
20.12.2014 15:20 5,2 C 5,2 C 5,4 C 86 % 1021,9 hPa 0,2 l/m 20,6 km/h (4 Bft) W 267 0 min 0,000 mm 14 W/m 3,1 C -3,1 C 45,1 km/h (6 Bft) 100 %
20.12.2014 15:30 4,9 C 4,9 C 5,2 C 88 % 1021,7 hPa 0,0 l/m 18,0 km/h (3 Bft) W-SW 251 0 min 0,000 mm 12 W/m 3,1 C -2,5 C 45,1 km/h (6 Bft) 100 %
20.12.2014 15:40 4,8 C 4,8 C 4,9 C 88 % 1021,5 hPa 0,0 l/m 16,3 km/h (3 Bft) W-SW 257 0 min 0,000 mm 11 W/m 3,0 C -1,8 C 37,0 km/h (5 Bft) 100 %
20.12.2014 15:50 4,9 C 4,8 C 4,9 C 87 % 1021,5 hPa 0,0 l/m 18,5 km/h (3 Bft) S-SW 205 0 min 0,000 mm 5 W/m 2,9 C -2,7 C 41,8 km/h (6 Bft) 100 %
20.12.2014 16:00 5,1 C 4,9 C 5,1 C 86 % 1021,6 hPa 0,0 l/m 18,9 km/h (3 Bft) W-NW 283 0 min 0,026 mm 9 W/m 3,0 C -2,6 C 41,8 km/h (6 Bft) 100 %
20.12.2014 16:10 5,3 C 5,1 C 5,3 C 85 % 1021,4 hPa 0,0 l/m 18,7 km/h (3 Bft) W 265 0 min 0,000 mm 0 W/m 3,0 C -2,3 C 38,6 km/h (5 Bft) 100 %
20.12.2014 16:20 5,3 C 5,3 C 5,4 C 85 % 1021,3 hPa 0,0 l/m 17,4 km/h (3 Bft) W-SW 242 0 min 0,000 mm 0 W/m 3,0 C -1,7 C 32,2 km/h (5 Bft) 99 %
20.12.2014 16:30 5,4 C 5,3 C 5,4 C 85 % 1021,4 hPa 0,0 l/m 18,8 km/h (3 Bft) W-SW 245 0 min 0,000 mm 0 W/m 3,1 C -2,2 C 43,5 km/h (6 Bft) 100 %
20.12.2014 16:40 5,4 C 5,4 C 5,4 C 85 % 1021,9 hPa 0,0 l/m 15,3 km/h (3 Bft) W-NW 292 0 min 0,000 mm 0 W/m 3,1 C -0,6 C 32,2 km/h (5 Bft) 99 %
20.12.2014 16:50 5,1 C 5,1 C 5,4 C 85 % 1022,0 hPa 0,2 l/m 15,5 km/h (3 Bft) W-NW 303 0 min 0,000 mm 0 W/m 2,8 C -1,1 C 33,8 km/h (5 Bft) 100 %
20.12.2014 17:00 4,0 C 4,0 C 5,1 C 89 % 1022,4 hPa 2,0 l/m 20,3 km/h (4 Bft) NW 308 0 min 0,025 mm 0 W/m 2,4 C -4,6 C 33,8 km/h (5 Bft) 100 %
20.12.2014 17:10 3,4 C 3,4 C 4,0 C 91 % 1022,3 hPa 1,0 l/m 15,4 km/h (3 Bft) W-SW 248 0 min 0,000 mm 0 W/m 2,1 C -3,1 C 35,4 km/h (5 Bft) 99 %
20.12.2014 17:20 3,6 C 3,4 C 3,6 C 92 % 1022,5 hPa 0,2 l/m 20,1 km/h (4 Bft) W 259 0 min 0,000 mm 0 W/m 2,4 C -5,0 C 38,6 km/h (5 Bft) 100 %
20.12.2014 17:30 3,9 C 3,6 C 3,9 C 92 % 1022,5 hPa 0,2 l/m 20,0 km/h (4 Bft) W 260 0 min 0,000 mm 0 W/m 2,7 C -4,6 C 38,6 km/h (5 Bft) 91 %
20.12.2014 17:40 4,1 C 3,9 C 4,1 C 92 % 1022,6 hPa 0,0 l/m 16,8 km/h (3 Bft) NW 304 0 min 0,000 mm 0 W/m 2,9 C -2,9 C 37,0 km/h (5 Bft) 100 %
20.12.2014 17:50 4,2 C 4,1 C 4,2 C 92 % 1022,6 hPa 0,0 l/m 17,4 km/h (3 Bft) W-SW 249 0 min 0,000 mm 0 W/m 3,0 C -3,1 C 33,8 km/h (5 Bft) 100 %
20.12.2014 18:00 4,3 C 4,2 C 4,3 C 92 % 1022,9 hPa 0,0 l/m 18,7 km/h (3 Bft) SW 220 0 min 0,025 mm 0 W/m 3,1 C -3,5 C 35,4 km/h (5 Bft) 100 %
20.12.2014 18:10 4,3 C 4,3 C 4,4 C 92 % 1023,0 hPa 0,0 l/m 17,9 km/h (3 Bft) W-SW 249 0 min 0,000 mm 0 W/m 3,1 C -3,2 C 37,0 km/h (5 Bft) 100 %
20.12.2014 18:20 4,4 C 4,3 C 4,4 C 92 % 1023,0 hPa 0,0 l/m 19,1 km/h (3 Bft) W-SW 252 0 min 0,000 mm 0 W/m 3,2 C -3,6 C 40,2 km/h (6 Bft) 100 %
20.12.2014 18:30 4,3 C 4,3 C 4,4 C 91 % 1023,0 hPa 0,0 l/m 15,0 km/h (3 Bft) SW 215 0 min 0,000 mm 0 W/m 3,0 C -1,8 C 35,4 km/h (5 Bft) 100 %
20.12.2014 18:40 4,3 C 4,3 C 4,3 C 92 % 1023,1 hPa 0,0 l/m 14,7 km/h (3 Bft) W-SW 241 0 min 0,000 mm 0 W/m 3,1 C -1,6 C 30,6 km/h (5 Bft) 100 %
20.12.2014 18:50 4,3 C 4,3 C 4,3 C 92 % 1023,1 hPa 0,0 l/m 15,4 km/h (3 Bft) SW 236 0 min 0,000 mm 0 W/m 3,1 C -2,0 C 27,4 km/h (4 Bft) 100 %
20.12.2014 19:00 4,2 C 4,2 C 4,3 C 92 % 1023,4 hPa 0,0 l/m 14,2 km/h (3 Bft) W-SW 243 0 min 0,000 mm 0 W/m 3,0 C -1,5 C 30,6 km/h (5 Bft) 99 %
20.12.2014 19:10 4,2 C 4,2 C 4,2 C 92 % 1024,0 hPa 0,0 l/m 10,4 km/h (2 Bft) W 273 0 min 0,000 mm 0 W/m 3,0 C 0,9 C 20,9 km/h (4 Bft) 100 %
20.12.2014 19:20 4,2 C 4,2 C 4,2 C 92 % 1024,2 hPa 0,0 l/m 10,4 km/h (2 Bft) SW 223 0 min 0,000 mm 0 W/m 3,0 C 0,9 C 22,5 km/h (4 Bft) 100 %
20.12.2014 19:30 4,3 C 4,2 C 4,3 C 91 % 1024,4 hPa 0,0 l/m 13,9 km/h (3 Bft) W 259 0 min 0,000 mm 0 W/m 3,0 C -1,2 C 32,2 km/h (5 Bft) 100 %
20.12.2014 19:40 4,3 C 4,2 C 4,3 C 91 % 1024,6 hPa 0,0 l/m 12,4 km/h (3 Bft) W-SW 254 0 min 0,000 mm 0 W/m 3,0 C -0,3 C 32,2 km/h (5 Bft) 100 %
20.12.2014 19:50 4,3 C 4,3 C 4,3 C 91 % 1024,6 hPa 0,0 l/m 12,6 km/h (3 Bft) W-SW 257 0 min 0,000 mm 0 W/m 3,0 C -0,4 C 25,7 km/h (4 Bft) 100 %
20.12.2014 20:00 4,3 C 4,3 C 4,3 C 91 % 1024,4 hPa 0,0 l/m 11,5 km/h (2 Bft) W-SW 252 0 min 0,000 mm 0 W/m 3,0 C 0,3 C 27,4 km/h (4 Bft) 100 %
20.12.2014 20:10 4,2 C 4,2 C 4,3 C 90 % 1024,4 hPa 0,0 l/m 12,8 km/h (3 Bft) W-NW 284 0 min 0,000 mm 0 W/m 2,7 C -0,7 C 37,0 km/h (5 Bft) 100 %
20.12.2014 20:20 4,2 C 4,2 C 4,2 C 90 % 1024,7 hPa 0,0 l/m 11,3 km/h (2 Bft) W 275 0 min 0,000 mm 0 W/m 2,7 C 0,3 C 29,0 km/h (5 Bft) 100 %
20.12.2014 20:30 4,2 C 4,2 C 4,2 C 90 % 1024,8 hPa 0,0 l/m 12,6 km/h (3 Bft) S-SW 199 0 min 0,000 mm 0 W/m 2,7 C -0,5 C 25,7 km/h (4 Bft) 100 %
20.12.2014 20:40 4,2 C 4,2 C 4,2 C 90 % 1025,0 hPa 0,0 l/m 14,2 km/h (3 Bft) SW 223 0 min 0,000 mm 0 W/m 2,7 C -1,5 C 37,0 km/h (5 Bft) 100 %
20.12.2014 20:50 4,3 C 4,2 C 4,3 C 90 % 1025,0 hPa 0,0 l/m 12,5 km/h (3 Bft) SW 234 0 min 0,000 mm 0 W/m 2,8 C -0,4 C 33,8 km/h (5 Bft) 100 %
20.12.2014 21:00 4,4 C 4,3 C 4,4 C 90 % 1025,2 hPa 0,0 l/m 11,8 km/h (2 Bft) SW 227 0 min 0,026 mm 0 W/m 2,9 C 0,2 C 29,0 km/h (5 Bft) 100 %
20.12.2014 21:10 4,6 C 4,4 C 4,6 C 90 % 1025,3 hPa 0,0 l/m 14,5 km/h (3 Bft) W-SW 247 0 min 0,000 mm 0 W/m 3,1 C -1,1 C 37,0 km/h (5 Bft) 100 %
20.12.2014 21:20 4,7 C 4,6 C 4,7 C 90 % 1025,7 hPa 0,0 l/m 16,1 km/h (3 Bft) W-SW 247 0 min 0,000 mm 0 W/m 3,2 C -1,8 C 37,0 km/h (5 Bft) 100 %
20.12.2014 21:30 4,8 C 4,7 C 4,8 C 89 % 1025,8 hPa 0,0 l/m 19,3 km/h (3 Bft) W-SW 247 0 min 0,000 mm 0 W/m 3,1 C -3,1 C 37,0 km/h (5 Bft) 100 %
20.12.2014 21:40 4,9 C 4,8 C 4,9 C 90 % 1025,9 hPa 0,0 l/m 16,1 km/h (3 Bft) W-SW 247 0 min 0,000 mm 0 W/m 3,4 C -1,6 C 35,4 km/h (5 Bft) 100 %
20.12.2014 21:50 4,9 C 4,9 C 4,9 C 89 % 1025,9 hPa 0,0 l/m 20,9 km/h (4 Bft) W-SW 247 0 min 0,000 mm 0 W/m 3,2 C -3,7 C 41,8 km/h (6 Bft) 100 %
20.12.2014 22:00 5,0 C 4,9 C 5,0 C 89 % 1026,1 hPa 0,0 l/m 19,3 km/h (3 Bft) W-SW 247 0 min 0,025 mm 0 W/m 3,3 C -2,9 C 41,8 km/h (6 Bft) 100 %
20.12.2014 22:10 4,9 C 4,9 C 5,0 C 89 % 1025,9 hPa 0,0 l/m 22,5 km/h (4 Bft) W-SW 247 0 min 0,000 mm 0 W/m 3,2 C -4,2 C 40,2 km/h (6 Bft) 100 %
20.12.2014 22:20 4,8 C 4,8 C 4,9 C 89 % 1026,2 hPa 0,0 l/m 14,5 km/h (3 Bft) W-SW 247 0 min 0,000 mm 0 W/m 3,1 C -0,9 C 32,2 km/h (5 Bft) 100 %
20.12.2014 22:30 4,8 C 4,8 C 4,9 C 90 % 1026,3 hPa 0,0 l/m 20,9 km/h (4 Bft) W-SW 247 0 min 0,000 mm 0 W/m 3,3 C -3,8 C 37,0 km/h (5 Bft) 100 %
20.12.2014 22:40 4,8 C 4,8 C 4,9 C 90 % 1026,4 hPa 0,0 l/m 17,7 km/h (3 Bft) W-SW 247 0 min 0,000 mm 0 W/m 3,3 C -2,5 C 35,4 km/h (5 Bft) 100 %
20.12.2014 22:50 4,8 C 4,8 C 4,8 C 90 % 1026,5 hPa 0,0 l/m 16,1 km/h (3 Bft) W-SW 247 0 min 0,000 mm 0 W/m 3,3 C -1,7 C 37,0 km/h (5 Bft) 100 %
20.12.2014 23:00 4,8 C 4,8 C 4,8 C 88 % 1026,8 hPa 0,0 l/m 22,5 km/h (4 Bft) W 270 0 min 0,025 mm 0 W/m 3,0 C -4,4 C 43,5 km/h (6 Bft) 100 %
20.12.2014 23:10 4,9 C 4,8 C 4,9 C 88 % 1027,0 hPa 0,0 l/m 19,3 km/h (3 Bft) W-SW 247 0 min 0,000 mm 0 W/m 3,1 C -3,0 C 37,0 km/h (5 Bft) 100 %
20.12.2014 23:20 4,9 C 4,9 C 4,9 C 89 % 1027,2 hPa 0,0 l/m 16,1 km/h (3 Bft) W 270 0 min 0,000 mm 0 W/m 3,2 C -1,6 C 32,2 km/h (5 Bft) 100 %
20.12.2014 23:30 4,8 C 4,8 C 4,9 C 89 % 1027,6 hPa 0,0 l/m 11,3 km/h (2 Bft) NW 315 0 min 0,000 mm 0 W/m 3,1 C 1,0 C 29,0 km/h (5 Bft) 100 %
20.12.2014 23:40 4,2 C 4,2 C 4,8 C 88 % 1027,9 hPa 0,0 l/m 3,2 km/h (1 Bft) N 360 0 min 0,000 mm 0 W/m 2,4 C 4,2 C 17,7 km/h (3 Bft) 100 %
20.12.2014 23:50 3,7 C 3,7 C 4,2 C 90 % 1028,0 hPa 1,4 l/m 4,8 km/h (1 Bft) N-NW 337 0 min 0,000 mm 0 W/m 2,2 C 3,7 C 20,9 km/h (4 Bft) 100 %
_ Min-Zeit 05:10 05:10 05:20 14:40 00:00 - 00:00 - - - - - 05:10 10:40 01:20 08:30
Minimum _ 2,8 C 2,8 C 2,8 C 79 % 1021,0 hPa - 0,0 km/h (0 Bft) - - - - - 1,0 C -5,3 C 1,6 km/h (1 Bft) 86 %
_ Max-Zeit 00:00 00:00 00:00 00:00 23:50 17:00 10:40 - - 09:40 10:00 10:10 00:00 00:00 13:40 00:00
Maximum _ 6,7 C 6,6 C 6,7 C 92 % 1028,0 hPa 2,0 l/m 25,2 km/h
W (4 Bft)
- - 10 min 0,051 mm 229 W/m 5,4 C 6,6 C 46,7 km/h
SW (6 Bft)
100 %
Durchschnitt _ 4,5 C 4,5 C 4,6 C 88 % 1023,7 hPa #5,4 l/m 12,4 km/h (3 Bft) W-SW - #40 min. #0,482 mm 63 W/m 2,8 C 0,0 C 27,3 km/h (4 Bft) 99 %
PRIVATE WETTERSTATION BILLIGHEIM-ALLFELD - www.neckar-odenwald-wetter.de - Holger Sonntag